ANE2006 LEPA-LEMH
Flight info
| Callsign | ANE2006 |
|---|---|
| Flight time | 0h 17m |
| Altitude | 12000 |
| Route | CDP |
| Aircraft | CRJX/M-SDFGIRWY/S |
Departure
| Time | 2026-04-23 09:33 |
|---|---|
| Airport | Palma de Mallorca Airport (LEPA) |
Arrival
| Time | 2026-04-23 09:51 |
|---|---|
| Airport | Menorca Airport (LEMH) |
| Time | Latitude | Longitude | Altitude | Speed | Heading |
|---|---|---|---|---|---|
| 2026-04-23 09:09 | 39.54699 | 2.73409 | 28 ft | 0 kts | 238° |
| 2026-04-23 09:24 | 39.54700 | 2.73412 | 28 ft | 2 kts | 237° |
| 2026-04-23 09:24 | 39.54709 | 2.73430 | 28 ft | 2 kts | 238° |
| 2026-04-23 09:24 | 39.54718 | 2.73448 | 28 ft | 2 kts | 233° |
| 2026-04-23 09:25 | 39.54731 | 2.73460 | 28 ft | 2 kts | 191° |
| 2026-04-23 09:25 | 39.54747 | 2.73458 | 28 ft | 2 kts | 152° |
| 2026-04-23 09:25 | 39.54756 | 2.73451 | 28 ft | 0 kts | 148° |
| 2026-04-23 09:29 | 39.54755 | 2.73452 | 28 ft | 1 kts | 148° |
| 2026-04-23 09:29 | 39.54729 | 2.73472 | 28 ft | 8 kts | 149° |
| 2026-04-23 09:29 | 39.54670 | 2.73519 | 28 ft | 11 kts | 148° |
| 2026-04-23 09:29 | 39.54627 | 2.73558 | 28 ft | 2 kts | 117° |
| 2026-04-23 09:30 | 39.54621 | 2.73597 | 28 ft | 6 kts | 106° |
| 2026-04-23 09:30 | 39.54594 | 2.73640 | 28 ft | 7 kts | 145° |
| 2026-04-23 09:30 | 39.54550 | 2.73675 | 28 ft | 8 kts | 149° |
| 2026-04-23 09:30 | 39.54501 | 2.73714 | 28 ft | 8 kts | 148° |
| 2026-04-23 09:31 | 39.54452 | 2.73753 | 28 ft | 9 kts | 148° |
| 2026-04-23 09:31 | 39.54424 | 2.73795 | 28 ft | 5 kts | 92° |
| 2026-04-23 09:31 | 39.54435 | 2.73821 | 28 ft | 5 kts | 57° |
| 2026-04-23 09:31 | 39.54469 | 2.73892 | 28 ft | 21 kts | 58° |
| 2026-04-23 09:32 | 39.54498 | 2.73952 | 28 ft | 1 kts | 58° |
| 2026-04-23 09:32 | 39.54500 | 2.73956 | 28 ft | 0 kts | 59° |
| 2026-04-23 09:32 | 39.54502 | 2.73961 | 28 ft | 1 kts | 59° |
| 2026-04-23 09:33 | 39.54524 | 2.74009 | 28 ft | 25 kts | 59° |
| 2026-04-23 09:33 | 39.54771 | 2.74532 | 28 ft | 110 kts | 58° |
| 2026-04-23 09:33 | 39.55288 | 2.75618 | 209 ft | 161 kts | 58° |
| 2026-04-23 09:33 | 39.55810 | 2.76927 | 1150 ft | 168 kts | 72° |
| 2026-04-23 09:34 | 39.56026 | 2.78583 | 1763 ft | 203 kts | 81° |
| 2026-04-23 09:34 | 39.56204 | 2.80373 | 2841 ft | 206 kts | 84° |
| 2026-04-23 09:34 | 39.56303 | 2.82312 | 3144 ft | 218 kts | 88° |
| 2026-04-23 09:34 | 39.56302 | 2.84261 | 3385 ft | 212 kts | 91° |
| 2026-04-23 09:35 | 39.56237 | 2.86144 | 3928 ft | 210 kts | 92° |
| 2026-04-23 09:35 | 39.56194 | 2.88071 | 4908 ft | 220 kts | 91° |
| 2026-04-23 09:35 | 39.56183 | 2.90101 | 5860 ft | 229 kts | 90° |
| 2026-04-23 09:35 | 39.56182 | 2.92202 | 6752 ft | 238 kts | 90° |
| 2026-04-23 09:36 | 39.56410 | 2.94354 | 7579 ft | 244 kts | 72° |
| 2026-04-23 09:36 | 39.56993 | 2.96458 | 8451 ft | 250 kts | 66° |
| 2026-04-23 09:36 | 39.57663 | 2.98584 | 9094 ft | 269 kts | 65° |
| 2026-04-23 09:36 | 39.58389 | 3.00909 | 9699 ft | 288 kts | 67° |
| 2026-04-23 09:37 | 39.59096 | 3.03418 | 10353 ft | 303 kts | 69° |
| 2026-04-23 09:37 | 39.59800 | 3.06045 | 11105 ft | 311 kts | 69° |
| 2026-04-23 09:37 | 39.60530 | 3.08751 | 11702 ft | 327 kts | 68° |
| 2026-04-23 09:37 | 39.61309 | 3.11650 | 11979 ft | 353 kts | 69° |
| 2026-04-23 09:38 | 39.62157 | 3.14769 | 12102 ft | 381 kts | 69° |
| 2026-04-23 09:38 | 39.63056 | 3.18126 | 12144 ft | 406 kts | 69° |
| 2026-04-23 09:38 | 39.63991 | 3.21589 | 12174 ft | 406 kts | 69° |
| 2026-04-23 09:38 | 39.64918 | 3.25051 | 12177 ft | 406 kts | 69° |
| 2026-04-23 09:39 | 39.65842 | 3.28509 | 12171 ft | 405 kts | 69° |
| 2026-04-23 09:39 | 39.66768 | 3.31962 | 12165 ft | 405 kts | 69° |
| 2026-04-23 09:39 | 39.67689 | 3.35413 | 12160 ft | 405 kts | 69° |
| 2026-04-23 09:39 | 39.68610 | 3.38861 | 12158 ft | 405 kts | 69° |
| 2026-04-23 09:40 | 39.69515 | 3.42328 | 12150 ft | 405 kts | 72° |
| 2026-04-23 09:40 | 39.69836 | 3.45903 | 12136 ft | 407 kts | 91° |
| 2026-04-23 09:40 | 39.69569 | 3.49556 | 12152 ft | 406 kts | 96° |
| 2026-04-23 09:40 | 39.69222 | 3.53192 | 12153 ft | 399 kts | 96° |
| 2026-04-23 09:41 | 39.68907 | 3.56705 | 12137 ft | 383 kts | 96° |
| 2026-04-23 09:41 | 39.68666 | 3.60072 | 12062 ft | 365 kts | 94° |
| 2026-04-23 09:41 | 39.68468 | 3.63281 | 11885 ft | 348 kts | 94° |
| 2026-04-23 09:41 | 39.68273 | 3.66336 | 11559 ft | 332 kts | 94° |
| 2026-04-23 09:42 | 39.68083 | 3.69273 | 11075 ft | 321 kts | 94° |
| 2026-04-23 09:42 | 39.67899 | 3.72137 | 10473 ft | 316 kts | 94° |
| 2026-04-23 09:42 | 39.67714 | 3.74968 | 9831 ft | 313 kts | 94° |
| 2026-04-23 09:42 | 39.67591 | 3.76822 | 9408 ft | 310 kts | 95° |
| 2026-04-23 09:43 | 39.67348 | 3.80478 | 8660 ft | 303 kts | 95° |
| 2026-04-23 09:43 | 39.67169 | 3.83185 | 8038 ft | 298 kts | 95° |
| 2026-04-23 09:43 | 39.66997 | 3.85849 | 7366 ft | 295 kts | 95° |
| 2026-04-23 09:43 | 39.66819 | 3.88499 | 6753 ft | 292 kts | 95° |
| 2026-04-23 09:44 | 39.66704 | 3.90221 | 6358 ft | 288 kts | 95° |
| 2026-04-23 09:44 | 39.66531 | 3.92771 | 5805 ft | 281 kts | 94° |
| 2026-04-23 09:44 | 39.66361 | 3.95289 | 5349 ft | 277 kts | 94° |
| 2026-04-23 09:44 | 39.66194 | 3.97769 | 4900 ft | 273 kts | 93° |
| 2026-04-23 09:45 | 39.66033 | 4.00209 | 4468 ft | 269 kts | 93° |
| 2026-04-23 09:45 | 39.65873 | 4.02603 | 4037 ft | 264 kts | 93° |
| 2026-04-23 09:45 | 39.65906 | 4.04944 | 3613 ft | 256 kts | 75° |
| 2026-04-23 09:45 | 39.66368 | 4.07137 | 3184 ft | 251 kts | 73° |
| 2026-04-23 09:46 | 39.66847 | 4.09300 | 2796 ft | 245 kts | 73° |
| 2026-04-23 09:46 | 39.67323 | 4.11380 | 2623 ft | 236 kts | 73° |
| 2026-04-23 09:46 | 39.67796 | 4.13369 | 2538 ft | 226 kts | 72° |
| 2026-04-23 09:46 | 39.68241 | 4.15248 | 2515 ft | 216 kts | 72° |
| 2026-04-23 09:47 | 39.68686 | 4.17097 | 2511 ft | 210 kts | 72° |
| 2026-04-23 09:47 | 39.69262 | 4.18780 | 2485 ft | 201 kts | 52° |
| 2026-04-23 09:47 | 39.70425 | 4.19693 | 2475 ft | 198 kts | 14° |
| 2026-04-23 09:47 | 39.71840 | 4.19708 | 2263 ft | 211 kts | 356° |
| 2026-04-23 09:48 | 39.73330 | 4.19541 | 1991 ft | 218 kts | 8° |
| 2026-04-23 09:48 | 39.74821 | 4.19869 | 1777 ft | 218 kts | 14° |
| 2026-04-23 09:48 | 39.76295 | 4.20187 | 1717 ft | 205 kts | 12° |
| 2026-04-23 09:48 | 39.77643 | 4.20406 | 1659 ft | 186 kts | 11° |
| 2026-04-23 09:49 | 39.78844 | 4.20594 | 1626 ft | 159 kts | 12° |
| 2026-04-23 09:49 | 39.79848 | 4.20758 | 1584 ft | 132 kts | 12° |
| 2026-04-23 09:49 | 39.80721 | 4.20907 | 1344 ft | 122 kts | 13° |
| 2026-04-23 09:49 | 39.81547 | 4.21032 | 1092 ft | 117 kts | 12° |
| 2026-04-23 09:50 | 39.82404 | 4.21164 | 952 ft | 125 kts | 11° |
| 2026-04-23 09:50 | 39.83276 | 4.21272 | 746 ft | 133 kts | 11° |
| 2026-04-23 09:50 | 39.84165 | 4.21432 | 611 ft | 122 kts | 12° |
| 2026-04-23 09:50 | 39.84983 | 4.21601 | 394 ft | 116 kts | 12° |
| 2026-04-23 09:51 | 39.85733 | 4.21751 | 295 ft | 96 kts | 12° |
| 2026-04-23 09:51 | 39.86276 | 4.21868 | 302 ft | 64 kts | 8° |
| 2026-04-23 09:51 | 39.86615 | 4.21936 | 301 ft | 41 kts | 9° |
| 2026-04-23 09:51 | 39.86854 | 4.22073 | 301 ft | 34 kts | 39° |
| 2026-04-23 09:52 | 39.86931 | 4.22203 | 298 ft | 11 kts | 110° |
| 2026-04-23 09:52 | 39.86875 | 4.22228 | 297 ft | 12 kts | 185° |
| 2026-04-23 09:52 | 39.86756 | 4.22204 | 296 ft | 21 kts | 188° |
| 2026-04-23 09:52 | 39.86610 | 4.22174 | 293 ft | 14 kts | 188° |
| 2026-04-23 09:53 | 39.86544 | 4.22193 | 296 ft | 7 kts | 105° |
| 2026-04-23 09:53 | 39.86536 | 4.22283 | 288 ft | 9 kts | 101° |
| 2026-04-23 09:53 | 39.86538 | 4.22353 | 286 ft | 10 kts | 98° |
| 2026-04-23 09:53 | 39.86530 | 4.22417 | 284 ft | 2 kts | 99° |
| 2026-04-23 09:54 | 39.86530 | 4.22418 | 284 ft | 0 kts | 99° |